createdAt,value
2023-02-22T00:00:40.606Z,47.08
2023-02-22T00:03:11.109Z,46.83
2023-02-22T00:05:40.897Z,46.77
2023-02-22T00:08:09.990Z,46.88
2023-02-22T00:10:38.419Z,47.28
2023-02-22T00:13:08.116Z,47.08
2023-02-22T00:15:35.700Z,47.03
2023-02-22T00:18:04.453Z,46.90
2023-02-22T00:20:32.755Z,47.00
2023-02-22T00:23:01.468Z,47.00
2023-02-22T00:25:28.378Z,47.03
2023-02-22T00:27:56.233Z,46.92
2023-02-22T00:30:26.748Z,46.85
2023-02-22T00:32:55.974Z,46.47
2023-02-22T00:35:25.251Z,46.70
2023-02-22T00:37:56.070Z,46.65
2023-02-22T00:40:25.362Z,46.90
2023-02-22T00:42:52.911Z,46.95
2023-02-22T00:45:21.697Z,46.90
2023-02-22T00:47:48.632Z,47.17
2023-02-22T00:50:16.424Z,46.88
2023-02-22T00:52:43.302Z,46.65
2023-02-22T00:55:17.793Z,46.75
2023-02-22T00:57:45.303Z,47.20
2023-02-22T01:00:17.898Z,46.50
2023-02-22T01:02:45.058Z,46.47
2023-02-22T01:05:14.821Z,46.67
2023-02-22T01:07:42.265Z,46.88
2023-02-22T01:10:12.029Z,47.10
2023-02-22T01:12:38.931Z,46.72
2023-02-22T01:15:10.433Z,46.75
2023-02-22T01:20:10.198Z,46.47
2023-02-22T01:22:37.541Z,46.85
2023-02-22T01:25:07.319Z,46.75
2023-02-22T01:27:36.104Z,46.85
2023-02-22T01:30:08.659Z,47.00
2023-02-22T01:32:36.444Z,47.17
2023-02-22T01:35:05.073Z,46.90
2023-02-22T01:37:32.460Z,47.20
2023-02-22T01:40:00.566Z,47.42
2023-02-22T01:42:29.273Z,46.80
2023-02-22T01:45:38.526Z,46.80
2023-02-22T01:48:09.458Z,47.05
2023-02-22T01:50:40.351Z,46.90
2023-02-22T01:53:09.260Z,47.08
2023-02-22T01:55:36.472Z,46.88
2023-02-22T01:58:05.064Z,46.88
2023-02-22T02:00:33.533Z,46.95
2023-02-22T02:03:04.674Z,47.15
2023-02-22T02:05:34.342Z,46.65
2023-02-22T02:08:08.892Z,47.17
2023-02-22T02:10:36.031Z,46.75
2023-02-22T02:13:04.013Z,47.58
2023-02-22T02:15:33.735Z,47.20
2023-02-22T02:18:05.041Z,46.58
2023-02-22T02:20:40.659Z,47.05
2023-02-22T02:23:24.651Z,48.00
2023-02-22T02:26:22.880Z,47.03
2023-02-22T02:29:25.610Z,46.65
2023-02-22T02:32:22.768Z,47.05
2023-02-22T02:34:53.795Z,47.00
2023-02-22T02:37:27.689Z,46.78
2023-02-22T02:39:59.260Z,46.90
2023-02-22T02:42:34.684Z,46.88
2023-02-22T02:45:10.017Z,47.10
2023-02-22T02:47:42.432Z,46.78
2023-02-22T02:50:11.668Z,47.17
2023-02-22T02:52:40.812Z,46.95
2023-02-22T02:55:11.308Z,46.85
2023-02-22T02:57:41.462Z,46.60
2023-02-22T03:00:22.648Z,47.38
2023-02-22T03:03:10.364Z,47.05
2023-02-22T03:05:59.541Z,46.88
2023-02-22T03:08:34.655Z,46.95
2023-02-22T03:11:15.123Z,46.72
2023-02-22T03:13:52.120Z,46.67
2023-02-22T03:16:29.725Z,46.97
2023-02-22T03:19:08.906Z,46.97
2023-02-22T03:21:47.996Z,46.90
2023-02-22T03:24:21.484Z,46.72
2023-02-22T03:26:54.018Z,46.63
2023-02-22T03:29:23.815Z,47.05
2023-02-22T03:31:53.652Z,46.17
2023-02-22T03:34:27.560Z,46.90
2023-02-22T03:36:59.143Z,46.58
2023-02-22T03:39:31.088Z,47.20
2023-02-22T03:42:06.902Z,46.80
2023-02-22T03:44:38.417Z,46.72
2023-02-22T03:47:09.561Z,46.70
2023-02-22T03:49:42.808Z,46.88
2023-02-22T03:52:10.234Z,46.75
2023-02-22T03:54:38.612Z,46.72
2023-02-22T03:57:09.964Z,46.85
2023-02-22T03:59:40.625Z,47.08
2023-02-22T04:02:07.561Z,46.63
2023-02-22T04:04:34.608Z,46.60
2023-02-22T04:07:03.538Z,46.85
2023-02-22T04:09:30.660Z,46.92
2023-02-22T04:11:57.663Z,47.03
2023-02-22T04:14:25.801Z,46.75
2023-02-22T04:16:54.229Z,46.95
2023-02-22T04:19:21.323Z,46.88
2023-02-22T04:21:50.637Z,46.97
2023-02-22T04:24:24.045Z,46.78
2023-02-22T04:26:51.142Z,46.85
2023-02-22T04:29:19.103Z,47.08
2023-02-22T04:31:46.011Z,47.08
2023-02-22T04:34:12.928Z,46.85
2023-02-22T04:36:42.393Z,46.80
2023-02-22T04:39:09.687Z,46.90
2023-02-22T04:41:37.939Z,46.97
2023-02-22T04:44:06.662Z,46.70
2023-02-22T04:46:34.322Z,46.53
2023-02-22T04:49:02.800Z,46.65
2023-02-22T04:51:32.270Z,46.83
2023-02-22T04:54:07.438Z,47.13
2023-02-22T04:56:38.260Z,47.20
2023-02-22T04:59:05.933Z,47.28
2023-02-22T05:01:33.727Z,46.83
2023-02-22T05:04:02.159Z,47.22
2023-02-22T05:06:29.116Z,47.45
2023-02-22T05:08:55.964Z,46.65
2023-02-22T05:11:22.903Z,46.45
2023-02-22T05:13:51.328Z,46.85
2023-02-22T05:16:18.366Z,46.70
2023-02-22T05:18:45.372Z,46.72
2023-02-22T05:21:13.596Z,46.95
2023-02-22T05:23:41.455Z,47.35
2023-02-22T05:26:10.019Z,46.90
2023-02-22T05:28:38.411Z,46.92
2023-02-22T05:31:07.541Z,46.67
2023-02-22T05:33:34.470Z,47.35
2023-02-22T05:36:01.358Z,46.85
2023-02-22T05:38:28.617Z,47.28
2023-02-22T05:40:56.936Z,46.58
2023-02-22T05:43:23.845Z,46.70
2023-02-22T05:45:50.725Z,46.78
2023-02-22T05:48:20.693Z,47.28
2023-02-22T05:50:49.951Z,46.70
2023-02-22T05:53:16.986Z,47.42
2023-02-22T05:55:46.203Z,46.45
2023-02-22T05:58:13.486Z,46.55
2023-02-22T06:00:40.461Z,46.83
2023-02-22T06:03:09.376Z,47.33
2023-02-22T06:05:37.894Z,46.75
2023-02-22T06:08:06.804Z,46.83
2023-02-22T06:10:33.909Z,46.85
2023-02-22T06:13:01.925Z,47.45
2023-02-22T06:15:29.658Z,47.30
2023-02-22T06:17:57.878Z,46.90
2023-02-22T06:20:27.302Z,47.50
2023-02-22T06:22:56.630Z,47.58
2023-02-22T06:25:25.208Z,47.35
2023-02-22T06:27:52.387Z,47.47
2023-02-22T06:30:21.612Z,47.70
2023-02-22T06:32:48.539Z,47.85
2023-02-22T06:35:16.121Z,48.30
2023-02-22T06:37:42.966Z,48.25
2023-02-22T06:40:12.488Z,47.67
2023-02-22T06:42:39.957Z,48.03
2023-02-22T06:45:07.614Z,48.20
2023-02-22T06:47:38.508Z,48.13
2023-02-22T06:50:05.789Z,48.38
2023-02-22T06:52:32.685Z,47.85
2023-02-22T06:54:59.489Z,48.17
2023-02-22T06:57:27.636Z,48.58
2023-02-22T06:59:54.485Z,48.42
2023-02-22T07:02:21.295Z,47.78
2023-02-22T07:04:48.154Z,48.40
2023-02-22T07:07:14.998Z,48.80
2023-02-22T07:09:42.187Z,48.17
2023-02-22T07:12:10.306Z,48.33
2023-02-22T07:14:38.506Z,48.53
2023-02-22T07:17:05.374Z,48.88
2023-02-22T07:19:32.146Z,48.88
2023-02-22T07:21:59.413Z,48.47
2023-02-22T07:24:28.381Z,49.35
2023-02-22T07:26:55.714Z,48.13
2023-02-22T07:29:22.633Z,48.70
2023-02-22T07:31:51.060Z,48.35
2023-02-22T07:34:18.013Z,48.42
2023-02-22T07:36:44.902Z,48.28
2023-02-22T07:39:11.820Z,48.15
2023-02-22T07:41:38.773Z,50.20
2023-02-22T07:44:14.561Z,48.42
2023-02-22T07:46:41.423Z,48.33
2023-02-22T07:49:09.613Z,48.53
2023-02-22T07:51:36.466Z,48.30
2023-02-22T07:54:03.344Z,49.00
2023-02-22T07:56:30.203Z,48.55
2023-02-22T07:58:57.096Z,48.83
2023-02-22T08:01:24.727Z,48.22
2023-02-22T08:03:52.648Z,48.53
2023-02-22T08:06:21.091Z,49.28
2023-02-22T08:08:47.941Z,49.92
2023-02-22T08:11:15.095Z,48.47
2023-02-22T08:13:42.090Z,48.83
2023-02-22T08:16:09.148Z,49.20
2023-02-22T08:18:38.271Z,49.03
2023-02-22T08:21:05.477Z,49.42
2023-02-22T08:23:34.497Z,49.03
2023-02-22T08:26:05.383Z,48.63
2023-02-22T08:28:32.374Z,48.53
2023-02-22T08:30:59.310Z,48.60
2023-02-22T08:33:26.301Z,48.83
2023-02-22T08:35:53.213Z,49.00
2023-02-22T08:38:22.510Z,49.17
2023-02-22T08:40:51.222Z,49.60
2023-02-22T08:43:18.497Z,49.22
2023-02-22T08:45:46.076Z,48.78
2023-02-22T08:48:14.065Z,48.88
2023-02-22T08:50:41.951Z,48.55
2023-02-22T08:53:10.623Z,48.42
2023-02-22T08:55:38.696Z,48.78
2023-02-22T08:58:10.289Z,48.58
2023-02-22T09:00:38.801Z,48.88
2023-02-22T09:03:07.345Z,48.55
2023-02-22T09:05:34.379Z,48.53
2023-02-22T09:08:01.698Z,49.10
2023-02-22T09:10:31.446Z,48.67
2023-02-22T09:13:00.609Z,48.78
2023-02-22T09:15:29.118Z,48.25
2023-02-22T09:17:56.306Z,48.25
2023-02-22T09:20:25.000Z,48.70
2023-02-22T09:22:52.746Z,48.53
2023-02-22T09:25:23.399Z,48.25
2023-02-22T09:27:51.234Z,48.58
2023-02-22T09:30:23.588Z,51.70
2023-02-22T09:32:54.070Z,48.47
2023-02-22T09:35:26.976Z,48.67
2023-02-22T09:37:55.222Z,48.72
2023-02-22T09:40:25.913Z,47.92
2023-02-22T09:43:02.474Z,48.58
2023-02-22T09:45:36.849Z,48.78
2023-02-22T09:48:21.294Z,48.67
2023-02-22T09:50:51.687Z,48.58
2023-02-22T09:53:31.618Z,48.65
2023-02-22T09:56:05.057Z,48.90
2023-02-22T09:58:34.481Z,48.10
2023-02-22T10:01:18.809Z,48.83
2023-02-22T10:03:55.539Z,48.13
2023-02-22T10:06:24.933Z,48.30
2023-02-22T10:08:56.488Z,48.45
2023-02-22T10:11:37.613Z,47.90
2023-02-22T10:14:20.098Z,48.40
2023-02-22T10:16:53.248Z,48.97
2023-02-22T10:19:31.603Z,47.97
2023-02-22T10:22:28.613Z,48.30
2023-02-22T10:25:00.709Z,48.15
2023-02-22T10:27:32.827Z,48.35
2023-02-22T10:30:12.806Z,48.28
2023-02-22T10:32:53.157Z,48.33
2023-02-22T10:35:25.697Z,48.47
2023-02-22T10:37:56.281Z,48.55
2023-02-22T10:40:32.204Z,49.05
2023-02-22T10:43:02.836Z,48.17
2023-02-22T10:45:35.958Z,48.40
2023-02-22T10:48:08.599Z,48.03
2023-02-22T10:50:39.829Z,48.75
2023-02-22T10:53:07.509Z,48.65
2023-02-22T10:55:34.585Z,48.22
2023-02-22T10:58:07.452Z,48.88
2023-02-22T11:00:37.448Z,49.08
2023-02-22T11:03:15.594Z,48.75
2023-02-22T11:05:44.128Z,48.60
2023-02-22T11:08:16.655Z,48.75
2023-02-22T11:10:44.005Z,48.50
2023-02-22T11:13:18.629Z,49.00
2023-02-22T11:15:45.672Z,48.35
2023-02-22T11:18:24.925Z,48.22
2023-02-22T11:21:02.373Z,48.20
2023-02-22T11:23:29.736Z,48.15
2023-02-22T11:26:07.536Z,48.60
2023-02-22T11:28:35.224Z,48.58
2023-02-22T11:31:14.501Z,48.22
2023-02-22T11:33:49.018Z,47.95
2023-02-22T11:36:31.264Z,48.08
2023-02-22T11:39:00.842Z,48.03
2023-02-22T11:41:34.975Z,48.38
2023-02-22T11:44:23.624Z,48.65
2023-02-22T11:46:52.044Z,48.22
2023-02-22T11:49:20.099Z,48.47
2023-02-22T11:52:06.709Z,48.58
2023-02-22T11:54:53.096Z,48.38
2023-02-22T11:57:38.470Z,47.58
2023-02-22T12:00:16.372Z,47.75
2023-02-22T12:03:13.010Z,48.38
2023-02-22T12:05:59.648Z,47.72
2023-02-22T12:08:37.723Z,47.80
2023-02-22T12:11:13.870Z,48.03
2023-02-22T12:13:59.321Z,48.05
2023-02-22T12:16:38.100Z,47.72
2023-02-22T12:19:15.003Z,48.55
2023-02-22T12:21:46.665Z,48.00
2023-02-22T12:24:19.369Z,47.60
2023-02-22T12:26:50.503Z,47.70
2023-02-22T12:29:26.798Z,47.80
2023-02-22T12:32:00.505Z,48.42
2023-02-22T12:34:35.903Z,47.85
2023-02-22T12:37:13.055Z,48.38
2023-02-22T12:39:53.562Z,47.63
2023-02-22T12:42:28.575Z,47.75
2023-02-22T12:45:01.060Z,48.35
2023-02-22T12:47:35.486Z,48.13
2023-02-22T12:50:11.719Z,48.08
2023-02-22T12:52:44.545Z,48.28
2023-02-22T12:55:16.830Z,48.30
2023-02-22T12:57:49.002Z,47.78
2023-02-22T13:00:23.134Z,48.38
2023-02-22T13:02:58.802Z,48.05
2023-02-22T13:05:26.173Z,48.13
2023-02-22T13:08:19.521Z,48.08
2023-02-22T13:11:10.936Z,48.03
2023-02-22T13:13:54.282Z,48.05
2023-02-22T13:16:32.893Z,48.83
2023-02-22T13:19:04.909Z,47.92
2023-02-22T13:21:41.113Z,48.47
2023-02-22T13:24:18.599Z,48.58
2023-02-22T13:26:51.411Z,48.72
2023-02-22T13:29:23.276Z,49.08
2023-02-22T13:32:04.492Z,47.92
2023-02-22T13:34:46.709Z,48.25
2023-02-22T13:37:36.004Z,48.38
2023-02-22T13:40:39.231Z,48.28
2023-02-22T13:43:25.140Z,47.85
2023-02-22T13:46:12.609Z,48.30
2023-02-22T13:49:03.132Z,48.42
2023-02-22T13:51:56.670Z,48.72
2023-02-22T13:54:31.278Z,48.08
2023-02-22T13:56:58.217Z,48.40
2023-02-22T13:59:30.121Z,48.22
2023-02-22T14:01:58.912Z,48.47
2023-02-22T14:04:38.256Z,48.22
2023-02-22T14:07:40.807Z,48.30
2023-02-22T14:10:46.629Z,47.90
2023-02-22T14:13:17.201Z,47.78
2023-02-22T14:16:22.909Z,48.33
2023-02-22T14:19:00.047Z,48.08
2023-02-22T14:21:26.962Z,48.25
2023-02-22T14:23:55.920Z,47.83
2023-02-22T14:26:26.867Z,49.08
2023-02-22T14:28:58.101Z,49.05
2023-02-22T14:31:35.931Z,48.28
2023-02-22T14:34:10.024Z,48.50
2023-02-22T14:36:44.699Z,48.08
2023-02-22T14:39:17.929Z,48.85
2023-02-22T14:41:51.621Z,48.63
2023-02-22T14:44:27.556Z,49.55
2023-02-22T14:46:56.940Z,49.17
2023-02-22T14:49:28.460Z,48.72
2023-02-22T14:51:59.535Z,48.83
2023-02-22T14:54:32.895Z,48.97
2023-02-22T14:57:14.812Z,48.70
2023-02-22T14:59:58.926Z,49.40
2023-02-22T15:02:26.166Z,48.72
2023-02-22T15:04:54.523Z,48.80
2023-02-22T15:07:27.440Z,49.15
2023-02-22T15:10:25.329Z,49.05
2023-02-22T15:12:59.056Z,48.97
2023-02-22T15:15:27.602Z,49.25
2023-02-22T15:17:56.531Z,49.58
2023-02-22T15:20:25.707Z,49.15
2023-02-22T15:22:59.459Z,49.45
2023-02-22T15:25:28.793Z,48.72
2023-02-22T15:28:01.693Z,48.40
2023-02-22T15:30:32.982Z,48.35
2023-02-22T15:35:42.432Z,49.25
2023-02-22T15:38:20.200Z,49.10
2023-02-22T15:40:50.747Z,48.83
2023-02-22T15:43:24.170Z,49.03
2023-02-22T15:45:52.736Z,48.85
2023-02-22T15:48:19.870Z,49.13
2023-02-22T15:51:10.561Z,48.85
2023-02-22T15:53:43.120Z,49.83
2023-02-22T15:56:14.592Z,49.92
2023-02-22T15:58:43.297Z,48.92
2023-02-22T16:01:18.766Z,49.13
2023-02-22T16:03:48.966Z,49.60
2023-02-22T16:06:28.625Z,49.03
2023-02-22T16:08:58.790Z,49.13
2023-02-22T16:11:30.594Z,49.22
2023-02-22T16:14:01.153Z,49.22
2023-02-22T16:16:32.307Z,48.83
2023-02-22T16:19:37.701Z,49.25
2023-02-22T16:22:13.576Z,48.95
2023-02-22T16:24:41.010Z,48.95
2023-02-22T16:27:18.837Z,48.97
2023-02-22T16:30:02.435Z,49.28
2023-02-22T16:32:31.492Z,49.45
2023-02-22T16:34:58.341Z,49.70
2023-02-22T16:37:25.364Z,49.13
2023-02-22T16:39:52.208Z,49.03
2023-02-22T16:42:24.082Z,48.70
2023-02-22T16:44:52.527Z,49.28
2023-02-22T16:47:19.565Z,49.22
2023-02-22T16:49:52.871Z,49.28
2023-02-22T16:52:20.658Z,49.05
2023-02-22T16:54:48.126Z,49.40
2023-02-22T16:57:20.837Z,48.72
2023-02-22T16:59:52.040Z,48.17
2023-02-22T17:02:19.978Z,50.00
2023-02-22T17:04:49.911Z,48.58
2023-02-22T17:07:20.604Z,48.28
2023-02-22T17:09:47.485Z,48.78
2023-02-22T17:12:14.351Z,49.08
2023-02-22T17:14:45.804Z,48.85
2023-02-22T17:17:13.476Z,48.60
2023-02-22T17:19:40.264Z,49.00
2023-02-22T17:22:09.435Z,48.55
2023-02-22T17:24:39.231Z,48.78
2023-02-22T17:27:06.104Z,49.13
2023-02-22T17:29:32.926Z,49.03
2023-02-22T17:32:00.131Z,49.05
2023-02-22T17:34:28.073Z,49.08
2023-02-22T17:36:55.011Z,48.65
2023-02-22T17:39:21.970Z,48.42
2023-02-22T17:41:57.028Z,48.80
2023-02-22T17:44:24.582Z,48.67
2023-02-22T17:46:52.936Z,48.65
2023-02-22T17:49:19.996Z,48.92
2023-02-22T17:51:49.896Z,48.03
2023-02-22T17:54:17.537Z,48.28
2023-02-22T17:56:44.705Z,48.38
2023-02-22T17:59:12.924Z,48.45
2023-02-22T18:01:40.019Z,48.45
2023-02-22T18:04:06.877Z,49.10
2023-02-22T18:06:33.831Z,48.22
2023-02-22T18:09:01.716Z,48.85
2023-02-22T18:11:32.504Z,48.33
2023-02-22T18:13:59.732Z,49.03
2023-02-22T18:16:28.196Z,48.72
2023-02-22T18:18:55.808Z,48.53
2023-02-22T18:21:23.451Z,48.45
2023-02-22T18:23:50.400Z,48.95
2023-02-22T18:26:19.427Z,48.55
2023-02-22T18:28:48.746Z,48.95
2023-02-22T18:31:17.793Z,48.47
2023-02-22T18:33:48.587Z,48.80
2023-02-22T18:36:16.409Z,48.50
2023-02-22T18:38:44.558Z,48.75
2023-02-22T18:41:13.216Z,48.53
2023-02-22T18:43:40.804Z,48.55
2023-02-22T18:46:09.448Z,48.17
2023-02-22T18:48:36.673Z,49.80
2023-02-22T18:51:07.298Z,48.33
2023-02-22T18:53:34.154Z,48.63
2023-02-22T18:56:03.840Z,48.05
2023-02-22T18:58:32.829Z,48.33
2023-02-22T19:01:00.184Z,48.65
2023-02-22T19:03:27.707Z,48.72
2023-02-22T19:05:56.104Z,48.65
2023-02-22T19:08:24.308Z,48.58
2023-02-22T19:10:51.225Z,48.15
2023-02-22T19:13:18.963Z,48.08
2023-02-22T19:15:45.803Z,48.72
2023-02-22T19:18:13.069Z,48.40
2023-02-22T19:23:10.456Z,48.33
2023-02-22T19:25:42.588Z,48.45
2023-02-22T19:28:09.636Z,48.15
2023-02-22T19:30:36.490Z,48.25
2023-02-22T19:33:04.894Z,48.47
2023-02-22T19:35:31.831Z,48.35
2023-02-22T19:37:58.822Z,49.00
2023-02-22T19:40:26.585Z,48.47
2023-02-22T19:42:57.819Z,49.35
2023-02-22T19:45:25.090Z,48.50
2023-02-22T19:47:54.600Z,48.25
2023-02-22T19:50:22.013Z,48.35
2023-02-22T19:52:48.859Z,48.53
2023-02-22T19:55:15.918Z,48.55
2023-02-22T19:57:46.433Z,49.30
2023-02-22T20:00:24.097Z,48.20
2023-02-22T20:03:05.593Z,48.90
2023-02-22T20:05:33.436Z,48.45
2023-02-22T20:08:00.335Z,48.45
2023-02-22T20:10:27.349Z,48.17
2023-02-22T20:12:54.177Z,49.10
2023-02-22T20:15:23.997Z,48.30
2023-02-22T20:17:51.288Z,48.17
2023-02-22T20:20:18.751Z,47.90
2023-02-22T20:22:45.746Z,48.33
2023-02-22T20:25:13.617Z,48.35
2023-02-22T20:27:40.860Z,48.08
2023-02-22T20:30:10.463Z,48.13
2023-02-22T20:32:39.666Z,48.03
2023-02-22T20:35:07.686Z,47.85
2023-02-22T20:37:35.544Z,48.15
2023-02-22T20:40:04.179Z,48.03
2023-02-22T20:42:31.979Z,48.80
2023-02-22T20:45:01.888Z,47.83
2023-02-22T20:47:28.774Z,47.78
2023-02-22T20:49:57.004Z,47.83
2023-02-22T20:52:23.844Z,48.22
2023-02-22T20:54:50.731Z,48.00
2023-02-22T20:57:17.632Z,48.47
2023-02-22T20:59:45.930Z,47.85
2023-02-22T21:02:12.838Z,47.83
2023-02-22T21:04:40.024Z,48.47
2023-02-22T21:07:08.310Z,47.88
2023-02-22T21:09:35.195Z,47.83
2023-02-22T21:12:02.077Z,47.67
2023-02-22T21:14:30.920Z,48.28
2023-02-22T21:16:57.749Z,47.83
2023-02-22T21:19:27.320Z,48.42
2023-02-22T21:21:55.655Z,48.08
2023-02-22T21:24:25.666Z,48.05
2023-02-22T21:26:52.607Z,47.63
2023-02-22T21:29:19.579Z,48.30
2023-02-22T21:31:46.603Z,48.00
2023-02-22T21:34:17.471Z,47.85
2023-02-22T21:36:45.170Z,47.72
2023-02-22T21:39:18.116Z,48.20
2023-02-22T21:41:48.082Z,47.72
2023-02-22T21:44:15.541Z,47.75
2023-02-22T21:46:43.072Z,47.60
2023-02-22T21:49:11.323Z,47.80
2023-02-22T21:51:38.432Z,48.13
2023-02-22T21:54:08.313Z,47.28
2023-02-22T21:56:36.833Z,47.53
2023-02-22T21:59:06.572Z,47.10
2023-02-22T22:01:35.789Z,47.35
2023-02-22T22:04:04.068Z,47.35
2023-02-22T22:06:33.205Z,47.45
2023-02-22T22:09:00.963Z,47.15
2023-02-22T22:11:30.608Z,47.28
2023-02-22T22:13:58.817Z,47.10
2023-02-22T22:16:29.798Z,47.30
2023-02-22T22:18:57.319Z,47.30
2023-02-22T22:21:24.652Z,46.92
2023-02-22T22:23:56.016Z,46.95
2023-02-22T22:26:24.655Z,47.50
2023-02-22T22:28:53.534Z,47.17
2023-02-22T22:31:23.728Z,46.97
2023-02-22T22:33:53.369Z,46.67
2023-02-22T22:36:21.646Z,47.00
2023-02-22T22:38:48.598Z,47.03
2023-02-22T22:41:18.895Z,46.92
2023-02-22T22:43:46.918Z,47.17
2023-02-22T22:46:16.224Z,47.13
2023-02-22T22:48:47.039Z,47.38
2023-02-22T22:51:19.749Z,46.92
2023-02-22T22:53:48.866Z,47.00
2023-02-22T22:56:17.815Z,46.85
2023-02-22T22:58:48.616Z,47.67
2023-02-22T23:01:19.739Z,47.08
2023-02-22T23:03:53.949Z,47.08
2023-02-22T23:06:24.947Z,46.67
2023-02-22T23:09:00.040Z,47.00
2023-02-22T23:11:28.700Z,46.67
2023-02-22T23:13:56.430Z,46.92
2023-02-22T23:16:24.165Z,46.70
2023-02-22T23:18:51.496Z,46.70
2023-02-22T23:21:19.789Z,46.72
2023-02-22T23:23:51.620Z,46.55
2023-02-22T23:26:18.565Z,46.97
2023-02-22T23:28:47.687Z,47.53
2023-02-22T23:31:16.914Z,46.65
2023-02-22T23:33:45.438Z,46.90
2023-02-22T23:36:12.490Z,46.78
2023-02-22T23:38:40.043Z,47.03
2023-02-22T23:41:10.592Z,47.25
2023-02-22T23:43:40.570Z,46.87
2023-02-22T23:46:10.814Z,46.97
2023-02-22T23:48:39.544Z,46.67
2023-02-22T23:51:09.155Z,46.50
2023-02-22T23:53:38.437Z,46.67
2023-02-22T23:56:10.101Z,46.72
2023-02-22T23:58:38.298Z,46.65
